createdAt,value
2023-01-21T00:01:21.487Z,30.20
2023-01-21T00:03:50.772Z,29.80
2023-01-21T00:06:18.605Z,28.88
2023-01-21T00:08:46.506Z,28.50
2023-01-21T00:11:15.987Z,29.23
2023-01-21T00:13:44.561Z,29.15
2023-01-21T00:16:13.114Z,29.10
2023-01-21T00:18:40.978Z,28.08
2023-01-21T00:21:10.510Z,27.35
2023-01-21T00:23:38.355Z,27.60
2023-01-21T00:26:08.504Z,26.85
2023-01-21T00:28:37.284Z,28.75
2023-01-21T00:31:06.967Z,27.88
2023-01-21T00:33:35.646Z,28.33
2023-01-21T00:36:04.908Z,27.20
2023-01-21T00:38:34.442Z,27.33
2023-01-21T00:41:02.996Z,26.80
2023-01-21T00:43:31.248Z,28.03
2023-01-21T00:45:59.449Z,27.73
2023-01-21T00:48:28.525Z,27.27
2023-01-21T00:51:00.313Z,26.67
2023-01-21T00:53:28.924Z,27.42
2023-01-21T00:56:01.612Z,26.30
2023-01-21T00:58:30.075Z,27.00
2023-01-21T01:01:02.517Z,27.65
2023-01-21T01:03:30.489Z,26.58
2023-01-21T01:06:03.801Z,27.33
2023-01-21T01:08:31.857Z,27.73
2023-01-21T01:11:01.892Z,28.00
2023-01-21T01:13:30.248Z,27.50
2023-01-21T01:15:58.649Z,27.67
2023-01-21T01:18:28.286Z,27.67
2023-01-21T01:20:56.464Z,26.38
2023-01-21T01:23:24.246Z,26.58
2023-01-21T01:26:01.459Z,27.17
2023-01-21T01:28:30.023Z,27.57
2023-01-21T01:30:58.280Z,26.95
2023-01-21T01:33:26.532Z,27.48
2023-01-21T01:35:54.443Z,27.60
2023-01-21T01:38:23.920Z,27.92
2023-01-21T01:40:53.668Z,26.40
2023-01-21T01:43:25.449Z,27.10
2023-01-21T01:45:53.687Z,27.50
2023-01-21T01:48:25.026Z,26.45
2023-01-21T01:50:53.256Z,27.83
2023-01-21T01:53:21.661Z,27.60
2023-01-21T01:55:50.571Z,26.38
2023-01-21T01:58:20.459Z,27.50
2023-01-21T02:00:49.711Z,33.58
2023-01-21T02:03:36.470Z,35.05
2023-01-21T02:06:04.655Z,36.08
2023-01-21T02:08:35.992Z,32.08
2023-01-21T02:11:07.710Z,31.17
2023-01-21T02:13:35.611Z,31.00
2023-01-21T02:16:36.355Z,29.55
2023-01-21T02:19:28.300Z,28.67
2023-01-21T02:22:03.844Z,30.35
2023-01-21T02:25:11.328Z,30.52
2023-01-21T02:27:48.091Z,31.38
2023-01-21T02:31:00.738Z,30.20
2023-01-21T02:33:57.154Z,29.58
2023-01-21T02:36:37.595Z,29.33
2023-01-21T02:39:13.760Z,28.97
2023-01-21T02:41:52.279Z,28.50
2023-01-21T02:44:32.377Z,27.67
2023-01-21T02:47:05.736Z,29.60
2023-01-21T02:49:40.659Z,29.58
2023-01-21T02:52:08.543Z,29.55
2023-01-21T02:54:54.487Z,29.13
2023-01-21T02:57:38.144Z,28.53
2023-01-21T03:00:10.641Z,28.15
2023-01-21T03:03:15.658Z,28.73
2023-01-21T03:06:04.536Z,28.50
2023-01-21T03:08:38.144Z,27.98
2023-01-21T03:11:14.142Z,29.17
2023-01-21T03:14:02.980Z,28.33
2023-01-21T03:16:53.075Z,27.35
2023-01-21T03:19:24.481Z,28.58
2023-01-21T03:21:56.826Z,27.42
2023-01-21T03:24:25.305Z,29.58
2023-01-21T03:26:57.120Z,28.43
2023-01-21T03:29:28.416Z,28.20
2023-01-21T03:31:59.832Z,27.92
2023-01-21T03:34:30.665Z,28.00
2023-01-21T03:37:05.544Z,28.10
2023-01-21T03:39:39.651Z,28.42
2023-01-21T03:42:08.668Z,28.85
2023-01-21T03:44:36.939Z,27.20
2023-01-21T03:47:15.262Z,28.55
2023-01-21T03:49:48.506Z,27.85
2023-01-21T03:52:19.907Z,29.27
2023-01-21T03:54:48.475Z,27.65
2023-01-21T03:57:16.488Z,29.75
2023-01-21T03:59:45.867Z,27.60
2023-01-21T04:02:19.121Z,29.30
2023-01-21T04:04:47.419Z,30.48
2023-01-21T04:07:17.206Z,30.10
2023-01-21T04:09:45.189Z,30.30
2023-01-21T04:12:13.237Z,30.33
2023-01-21T04:14:41.009Z,30.35
2023-01-21T04:17:08.908Z,30.95
2023-01-21T04:19:36.919Z,31.52
2023-01-21T04:22:04.705Z,31.70
2023-01-21T04:24:34.812Z,31.60
2023-01-21T04:27:02.679Z,31.10
2023-01-21T04:29:30.443Z,31.53
2023-01-21T04:31:58.284Z,33.10
2023-01-21T04:34:26.160Z,33.20
2023-01-21T04:36:53.897Z,33.00
2023-01-21T04:39:21.710Z,33.93
2023-01-21T04:41:51.572Z,34.83
2023-01-21T04:44:19.317Z,33.17
2023-01-21T04:46:47.159Z,32.13
2023-01-21T04:49:15.036Z,31.90
2023-01-21T04:51:42.831Z,33.33
2023-01-21T04:54:11.212Z,33.83
2023-01-21T04:56:39.262Z,32.70
2023-01-21T04:59:08.467Z,33.50
2023-01-21T05:01:36.264Z,33.92
2023-01-21T05:04:04.360Z,33.53
2023-01-21T05:06:32.134Z,33.35
2023-01-21T05:08:59.920Z,32.60
2023-01-21T05:11:27.723Z,32.35
2023-01-21T05:13:55.518Z,34.85
2023-01-21T05:16:24.645Z,32.40
2023-01-21T05:18:52.489Z,33.50
2023-01-21T05:21:20.293Z,32.47
2023-01-21T05:23:48.057Z,34.50
2023-01-21T05:26:15.962Z,33.80
2023-01-21T05:28:43.722Z,33.33
2023-01-21T05:31:11.628Z,33.97
2023-01-21T05:33:43.840Z,32.60
2023-01-21T05:36:11.679Z,32.33
2023-01-21T05:38:39.613Z,33.88
2023-01-21T05:41:07.419Z,32.72
2023-01-21T05:43:35.223Z,33.10
2023-01-21T05:46:03.067Z,31.23
2023-01-21T05:48:31.877Z,32.67
2023-01-21T05:51:01.191Z,32.78
2023-01-21T05:53:29.101Z,33.47
2023-01-21T05:55:57.927Z,32.75
2023-01-21T05:58:26.084Z,33.42
2023-01-21T06:00:54.381Z,34.35
2023-01-21T06:03:22.208Z,33.10
2023-01-21T06:05:50.994Z,33.40
2023-01-21T06:08:20.324Z,34.92
2023-01-21T06:10:48.226Z,33.15
2023-01-21T06:13:16.975Z,32.30
2023-01-21T06:15:44.821Z,32.28
2023-01-21T06:18:12.637Z,31.45
2023-01-21T06:20:40.434Z,30.98
2023-01-21T06:23:08.388Z,31.27
2023-01-21T06:25:37.588Z,29.53
2023-01-21T06:28:05.489Z,30.77
2023-01-21T06:30:33.346Z,29.80
2023-01-21T06:33:01.154Z,31.05
2023-01-21T06:35:28.902Z,25.83
2023-01-21T06:37:56.692Z,27.65
2023-01-21T06:40:25.565Z,27.65
2023-01-21T06:42:54.860Z,28.10
2023-01-21T06:45:22.660Z,28.80
2023-01-21T06:47:50.551Z,27.27
2023-01-21T06:50:19.212Z,27.10
2023-01-21T06:52:48.810Z,28.42
2023-01-21T06:55:18.048Z,27.08
2023-01-21T06:57:55.204Z,27.63
2023-01-21T07:00:27.548Z,28.47
2023-01-21T07:03:04.369Z,28.75
2023-01-21T07:05:41.273Z,29.30
2023-01-21T07:08:13.907Z,28.77
2023-01-21T07:10:42.212Z,28.17
2023-01-21T07:13:10.118Z,29.30
2023-01-21T07:15:39.234Z,29.90
2023-01-21T07:18:07.563Z,28.73
2023-01-21T07:20:35.570Z,27.65
2023-01-21T07:23:03.315Z,27.13
2023-01-21T07:25:32.309Z,27.13
2023-01-21T07:28:00.139Z,27.98
2023-01-21T07:30:28.000Z,27.85
2023-01-21T07:32:57.131Z,26.77
2023-01-21T07:35:24.916Z,28.38
2023-01-21T07:37:52.932Z,26.95
2023-01-21T07:40:22.005Z,27.83
2023-01-21T07:42:52.725Z,28.95
2023-01-21T07:45:22.323Z,27.92
2023-01-21T07:47:50.645Z,28.27
2023-01-21T07:50:20.039Z,28.57
2023-01-21T07:52:48.082Z,29.23
2023-01-21T07:55:17.271Z,29.45
2023-01-21T07:57:45.185Z,28.37
2023-01-21T08:00:14.196Z,29.27
2023-01-21T08:02:42.204Z,28.27
2023-01-21T08:05:10.882Z,27.70
2023-01-21T08:07:40.364Z,29.08
2023-01-21T08:10:08.685Z,27.73
2023-01-21T08:12:38.535Z,28.05
2023-01-21T08:15:07.817Z,28.35
2023-01-21T08:17:38.149Z,29.05
2023-01-21T08:20:06.982Z,28.77
2023-01-21T08:22:34.851Z,29.40
2023-01-21T08:25:05.088Z,28.20
2023-01-21T08:27:33.000Z,29.27
2023-01-21T08:30:00.827Z,29.80
2023-01-21T08:32:31.463Z,28.20
2023-01-21T08:34:59.541Z,28.67
2023-01-21T08:37:27.406Z,29.45
2023-01-21T08:39:55.199Z,29.83
2023-01-21T08:42:24.427Z,30.15
2023-01-21T08:44:54.009Z,29.80
2023-01-21T08:47:21.888Z,29.60
2023-01-21T08:49:49.705Z,29.45
2023-01-21T08:52:17.959Z,28.92
2023-01-21T08:54:45.735Z,29.27
2023-01-21T08:57:13.537Z,29.75
2023-01-21T08:59:42.792Z,28.90
2023-01-21T09:02:12.660Z,29.00
2023-01-21T09:04:40.607Z,29.80
2023-01-21T09:07:08.691Z,29.40
2023-01-21T09:09:36.953Z,28.90
2023-01-21T09:12:06.619Z,29.55
2023-01-21T09:14:34.561Z,28.33
2023-01-21T09:17:03.734Z,28.38
2023-01-21T09:19:31.713Z,29.70
2023-01-21T09:21:59.582Z,29.57
2023-01-21T09:24:27.399Z,28.83
2023-01-21T09:26:55.311Z,28.80
2023-01-21T09:29:23.433Z,29.52
2023-01-21T09:31:51.344Z,29.00
2023-01-21T09:34:20.505Z,28.65
2023-01-21T09:36:48.365Z,28.60
2023-01-21T09:39:16.225Z,29.40
2023-01-21T09:41:46.590Z,28.70
2023-01-21T09:44:22.170Z,28.20
2023-01-21T09:46:55.962Z,28.23
2023-01-21T09:49:31.538Z,27.35
2023-01-21T09:52:07.312Z,28.00
2023-01-21T09:54:37.871Z,27.65
2023-01-21T09:57:37.406Z,28.13
2023-01-21T10:00:20.866Z,27.40
2023-01-21T10:02:57.498Z,27.63
2023-01-21T10:05:51.454Z,28.13
2023-01-21T10:08:32.500Z,25.92
2023-01-21T10:11:13.587Z,26.85
2023-01-21T10:13:58.901Z,26.45
2023-01-21T10:16:36.364Z,26.58
2023-01-21T10:19:06.651Z,27.42
2023-01-21T10:21:40.432Z,27.52
2023-01-21T10:24:14.043Z,27.55
2023-01-21T10:26:44.404Z,25.58
2023-01-21T10:29:17.361Z,24.90
2023-01-21T10:31:50.225Z,25.20
2023-01-21T10:34:20.193Z,25.50
2023-01-21T10:37:00.398Z,27.13
2023-01-21T10:39:38.635Z,26.75
2023-01-21T10:42:25.297Z,25.00
2023-01-21T10:45:01.144Z,24.52
2023-01-21T10:47:37.741Z,24.58
2023-01-21T10:50:22.001Z,23.55
2023-01-21T10:52:57.619Z,23.65
2023-01-21T10:55:41.743Z,27.05
2023-01-21T10:58:20.127Z,25.07
2023-01-21T11:00:50.461Z,25.73
2023-01-21T11:03:23.520Z,25.40
2023-01-21T11:05:51.476Z,25.00
2023-01-21T11:08:23.516Z,23.30
2023-01-21T11:10:55.099Z,23.70
2023-01-21T11:13:23.405Z,25.17
2023-01-21T11:15:53.940Z,24.90
2023-01-21T11:18:31.153Z,24.25
2023-01-21T11:21:00.711Z,23.70
2023-01-21T11:23:31.769Z,23.77
2023-01-21T11:26:04.297Z,24.33
2023-01-21T11:28:32.289Z,23.80
2023-01-21T11:31:13.753Z,22.88
2023-01-21T11:33:43.385Z,21.95
2023-01-21T11:36:14.415Z,23.38
2023-01-21T11:38:44.019Z,24.53
2023-01-21T11:41:18.164Z,22.75
2023-01-21T11:43:48.638Z,23.52
2023-01-21T11:46:38.168Z,24.48
2023-01-21T11:49:26.857Z,23.15
2023-01-21T11:52:15.977Z,24.38
2023-01-21T11:54:45.378Z,22.43
2023-01-21T11:57:29.143Z,22.83
2023-01-21T12:00:13.398Z,23.50
2023-01-21T12:02:46.584Z,25.10
2023-01-21T12:05:17.990Z,23.63
2023-01-21T12:07:51.299Z,22.75
2023-01-21T12:10:27.545Z,23.45
2023-01-21T12:13:17.247Z,23.25
2023-01-21T12:16:11.931Z,22.65
2023-01-21T12:18:55.980Z,21.48
2023-01-21T12:21:36.084Z,20.30
2023-01-21T12:24:19.096Z,20.13
2023-01-21T12:26:56.848Z,20.73
2023-01-21T12:29:34.813Z,23.23
2023-01-21T12:32:07.076Z,20.65
2023-01-21T12:34:40.831Z,21.15
2023-01-21T12:37:17.247Z,20.45
2023-01-21T12:39:48.387Z,20.30
2023-01-21T12:42:22.814Z,20.73
2023-01-21T12:44:54.012Z,19.92
2023-01-21T12:47:28.897Z,22.08
2023-01-21T12:50:17.774Z,21.08
2023-01-21T12:52:53.461Z,21.48
2023-01-21T12:55:25.375Z,21.38
2023-01-21T12:58:03.655Z,20.63
2023-01-21T13:00:34.929Z,20.58
2023-01-21T13:03:17.183Z,21.45
2023-01-21T13:05:53.381Z,20.38
2023-01-21T13:08:39.603Z,19.23
2023-01-21T13:11:14.253Z,19.55
2023-01-21T13:13:51.055Z,20.23
2023-01-21T13:16:20.060Z,18.88
2023-01-21T13:18:54.178Z,18.60
2023-01-21T13:21:32.013Z,17.67
2023-01-21T13:24:06.596Z,18.33
2023-01-21T13:26:43.966Z,18.08
2023-01-21T13:29:19.463Z,17.38
2023-01-21T13:31:52.943Z,18.17
2023-01-21T13:34:27.115Z,19.55
2023-01-21T13:37:06.612Z,20.33
2023-01-21T13:39:44.198Z,19.00
2023-01-21T13:42:30.489Z,18.65
2023-01-21T13:45:09.165Z,18.63
2023-01-21T13:47:58.877Z,19.60
2023-01-21T13:50:51.263Z,19.10
2023-01-21T13:53:42.077Z,19.05
2023-01-21T13:56:31.776Z,19.60
2023-01-21T13:59:02.891Z,18.45
2023-01-21T14:01:38.888Z,19.50
2023-01-21T14:04:12.465Z,19.35
2023-01-21T14:06:46.503Z,18.58
2023-01-21T14:09:18.762Z,19.40
2023-01-21T14:11:54.095Z,19.75
2023-01-21T14:15:08.216Z,20.77
2023-01-21T14:18:05.175Z,20.45
2023-01-21T14:20:50.494Z,20.30
2023-01-21T14:23:41.480Z,18.58
2023-01-21T14:26:24.339Z,19.40
2023-01-21T14:29:00.971Z,19.55
2023-01-21T14:31:35.751Z,20.33
2023-01-21T14:34:17.863Z,20.27
2023-01-21T14:36:51.946Z,19.30
2023-01-21T14:39:38.526Z,19.70
2023-01-21T14:42:12.567Z,18.95
2023-01-21T14:44:45.514Z,19.45
2023-01-21T14:47:18.660Z,19.15
2023-01-21T14:49:49.599Z,19.15
2023-01-21T14:52:19.994Z,20.50
2023-01-21T14:54:48.837Z,19.38
2023-01-21T14:57:32.953Z,18.77
2023-01-21T15:00:13.087Z,18.75
2023-01-21T15:02:44.347Z,19.20
2023-01-21T15:05:26.132Z,18.58
2023-01-21T15:08:06.817Z,18.85
2023-01-21T15:10:38.711Z,18.33
2023-01-21T15:13:14.837Z,18.77
2023-01-21T15:16:12.984Z,18.80
2023-01-21T15:18:43.962Z,17.95
2023-01-21T15:21:34.094Z,17.90
2023-01-21T15:24:21.028Z,17.58
2023-01-21T15:27:12.827Z,17.13
2023-01-21T15:29:41.614Z,17.92
2023-01-21T15:32:38.784Z,17.88
2023-01-21T15:35:16.668Z,17.15
2023-01-21T15:37:46.916Z,17.60
2023-01-21T15:40:19.709Z,17.38
2023-01-21T15:42:55.473Z,16.52
2023-01-21T15:45:33.784Z,17.45
2023-01-21T15:48:30.182Z,16.60
2023-01-21T15:51:13.244Z,16.87
2023-01-21T15:53:55.219Z,17.15
2023-01-21T15:56:45.973Z,16.88
2023-01-21T15:59:28.018Z,16.02
2023-01-21T16:02:16.519Z,17.17
2023-01-21T16:04:57.609Z,15.90
2023-01-21T16:07:33.902Z,17.40
2023-01-21T16:10:13.046Z,16.13
2023-01-21T16:12:48.632Z,15.30
2023-01-21T16:15:24.893Z,16.20
2023-01-21T16:18:11.447Z,16.20
2023-01-21T16:20:45.923Z,16.05
2023-01-21T16:23:16.804Z,16.02
2023-01-21T16:25:49.343Z,16.10
2023-01-21T16:28:17.423Z,14.65
2023-01-21T16:30:54.509Z,15.35
2023-01-21T16:33:22.399Z,14.73
2023-01-21T16:35:53.869Z,15.02
2023-01-21T16:38:23.485Z,15.35
2023-01-21T16:41:08.971Z,14.93
2023-01-21T16:43:38.926Z,15.93
2023-01-21T16:46:12.341Z,15.17
2023-01-21T16:48:40.935Z,15.07
2023-01-21T16:51:18.318Z,15.73
2023-01-21T16:53:46.289Z,15.60
2023-01-21T16:56:26.198Z,15.27
2023-01-21T16:58:55.554Z,16.65
2023-01-21T17:01:25.481Z,16.10
2023-01-21T17:03:53.506Z,15.57
2023-01-21T17:06:28.419Z,15.95
2023-01-21T17:09:00.881Z,15.00
2023-01-21T17:11:31.275Z,15.75
2023-01-21T17:14:01.094Z,15.05
2023-01-21T17:16:31.872Z,14.85
2023-01-21T17:19:02.407Z,15.35
2023-01-21T17:21:37.186Z,14.75
2023-01-21T17:24:07.715Z,15.45
2023-01-21T17:26:39.248Z,15.18
2023-01-21T17:29:12.937Z,16.17
2023-01-21T17:31:43.222Z,15.63
2023-01-21T17:34:22.950Z,14.50
2023-01-21T17:36:53.611Z,15.82
2023-01-21T17:40:01.148Z,16.37
2023-01-21T17:42:38.557Z,15.68
2023-01-21T17:45:08.371Z,17.17
2023-01-21T17:47:58.733Z,16.67
2023-01-21T17:50:28.266Z,16.30
2023-01-21T17:53:01.426Z,18.08
2023-01-21T17:55:32.498Z,18.15
2023-01-21T17:58:04.550Z,18.70
2023-01-21T18:00:43.028Z,16.52
2023-01-21T18:03:11.877Z,15.43
2023-01-21T18:05:43.091Z,16.63
2023-01-21T18:08:16.546Z,15.63
2023-01-21T18:10:45.856Z,16.98
2023-01-21T18:13:14.243Z,16.27
2023-01-21T18:15:44.062Z,16.67
2023-01-21T18:18:17.921Z,17.08
2023-01-21T18:20:47.317Z,16.70
2023-01-21T18:23:18.073Z,17.35
2023-01-21T18:25:48.644Z,17.73
2023-01-21T18:28:20.225Z,17.13
2023-01-21T18:30:48.759Z,16.95
2023-01-21T18:33:16.807Z,17.50
2023-01-21T18:35:46.617Z,17.65
2023-01-21T18:38:18.958Z,18.20
2023-01-21T18:40:47.056Z,18.07
2023-01-21T18:43:14.982Z,17.73
2023-01-21T18:45:43.038Z,18.48
2023-01-21T18:48:12.580Z,17.73
2023-01-21T18:50:40.421Z,22.75
2023-01-21T18:53:09.179Z,20.15
2023-01-21T18:55:38.486Z,18.88
2023-01-21T18:58:14.150Z,18.27
2023-01-21T19:00:42.523Z,19.23
2023-01-21T19:03:13.525Z,19.13
2023-01-21T19:05:43.865Z,19.00
2023-01-21T19:08:15.232Z,17.98
2023-01-21T19:10:44.636Z,18.30
2023-01-21T19:13:13.284Z,18.05
2023-01-21T19:15:41.674Z,19.55
2023-01-21T19:18:12.334Z,18.70
2023-01-21T19:20:41.547Z,18.53
2023-01-21T19:23:15.173Z,19.77
2023-01-21T19:25:47.708Z,19.88
2023-01-21T19:28:15.816Z,19.10
2023-01-21T19:30:45.142Z,17.88
2023-01-21T19:33:13.441Z,18.63
2023-01-21T19:35:44.226Z,19.00
2023-01-21T19:38:15.090Z,19.33
2023-01-21T19:40:45.554Z,19.38
2023-01-21T19:43:14.681Z,19.52
2023-01-21T19:45:43.149Z,17.90
2023-01-21T19:48:13.385Z,18.75
2023-01-21T19:50:42.278Z,18.30
2023-01-21T19:53:11.801Z,18.48
2023-01-21T19:55:40.907Z,18.70
2023-01-21T19:58:19.452Z,18.73
2023-01-21T20:00:49.434Z,19.13
2023-01-21T20:03:18.021Z,18.40
2023-01-21T20:05:46.461Z,18.55
2023-01-21T20:08:16.356Z,18.60
2023-01-21T20:10:44.620Z,18.85
2023-01-21T20:13:14.912Z,18.67
2023-01-21T20:15:44.924Z,18.08
2023-01-21T20:18:18.892Z,19.00
2023-01-21T20:20:46.929Z,19.17
2023-01-21T20:23:16.166Z,19.25
2023-01-21T20:25:46.021Z,19.08
2023-01-21T20:28:19.307Z,18.55
2023-01-21T20:30:48.093Z,19.83
2023-01-21T20:33:18.776Z,19.08
2023-01-21T20:35:48.447Z,18.67
2023-01-21T20:38:19.075Z,19.52
2023-01-21T20:40:46.976Z,19.48
2023-01-21T20:43:17.888Z,19.67
2023-01-21T20:45:48.957Z,19.77
2023-01-21T20:48:19.970Z,19.50
2023-01-21T20:50:48.650Z,19.85
2023-01-21T20:53:18.793Z,19.90
2023-01-21T20:55:48.641Z,19.92
2023-01-21T20:58:19.282Z,20.00
2023-01-21T21:00:47.945Z,19.10
2023-01-21T21:03:16.567Z,19.42
2023-01-21T21:05:44.680Z,19.52
2023-01-21T21:08:15.885Z,19.47
2023-01-21T21:10:44.099Z,19.25
2023-01-21T21:13:12.782Z,19.58
2023-01-21T21:15:45.719Z,20.27
2023-01-21T21:18:15.138Z,20.98
2023-01-21T21:20:43.600Z,19.33
2023-01-21T21:23:13.881Z,20.92
2023-01-21T21:25:44.498Z,20.70
2023-01-21T21:28:14.956Z,20.52
2023-01-21T21:30:44.811Z,20.30
2023-01-21T21:33:18.156Z,20.15
2023-01-21T21:35:46.960Z,20.50
2023-01-21T21:38:17.593Z,20.55
2023-01-21T21:40:47.607Z,21.20
2023-01-21T21:43:32.576Z,20.65
2023-01-21T21:46:23.276Z,20.00
2023-01-21T21:48:52.462Z,20.03
2023-01-21T21:51:21.998Z,19.85
2023-01-21T21:53:50.396Z,20.88
2023-01-21T21:56:20.671Z,19.85
2023-01-21T21:58:48.908Z,19.73
2023-01-21T22:01:20.919Z,19.90
2023-01-21T22:03:49.150Z,20.35
2023-01-21T22:06:19.790Z,19.38
2023-01-21T22:08:48.122Z,19.80
2023-01-21T22:11:17.677Z,19.67
2023-01-21T22:13:50.062Z,20.10
2023-01-21T22:16:21.593Z,20.73
2023-01-21T22:18:49.410Z,20.58
2023-01-21T22:21:19.019Z,19.55
2023-01-21T22:23:47.332Z,20.17
2023-01-21T22:26:17.037Z,19.95
2023-01-21T22:28:45.615Z,20.33
2023-01-21T22:31:15.899Z,21.02
2023-01-21T22:33:45.390Z,21.15
2023-01-21T22:36:15.333Z,20.58
2023-01-21T22:38:43.431Z,20.13
2023-01-21T22:41:12.654Z,20.90
2023-01-21T22:43:44.666Z,20.65
2023-01-21T22:46:14.738Z,21.48
2023-01-21T22:48:42.624Z,21.35
2023-01-21T22:51:13.443Z,21.50
2023-01-21T22:53:41.442Z,21.15
2023-01-21T22:56:09.402Z,21.42
2023-01-21T22:58:37.611Z,19.98
2023-01-21T23:01:06.164Z,21.10
2023-01-21T23:03:34.393Z,22.25
2023-01-21T23:06:06.369Z,21.48
2023-01-21T23:08:37.399Z,21.48
2023-01-21T23:11:07.110Z,21.77
2023-01-21T23:13:35.763Z,22.02
2023-01-21T23:16:06.537Z,20.85
2023-01-21T23:18:36.323Z,21.88
2023-01-21T23:21:07.281Z,21.90
2023-01-21T23:23:37.831Z,22.05
2023-01-21T23:26:07.333Z,21.33
2023-01-21T23:28:38.648Z,22.48
2023-01-21T23:31:07.622Z,21.50
2023-01-21T23:33:35.940Z,21.25
2023-01-21T23:36:03.927Z,21.08
2023-01-21T23:38:31.991Z,21.88
2023-01-21T23:41:06.096Z,20.93
2023-01-21T23:43:33.990Z,21.15
2023-01-21T23:46:01.833Z,20.98
2023-01-21T23:48:29.780Z,21.17
2023-01-21T23:51:03.640Z,21.75
2023-01-21T23:53:31.503Z,21.23
2023-01-21T23:56:08.824Z,20.13
2023-01-21T23:58:36.913Z,20.63
